sensor_id;sensor_type;location;lat;lon;timestamp;pressure;altitude;pressure_sealevel;temperature;humidity
63739;BME280;68816;45.558;10.070;2023-10-19T00:00:46;99361.97;;;13.44;94.80
63739;BME280;68816;45.558;10.070;2023-10-19T00:03:14;99348.94;;;13.54;95.12
63739;BME280;68816;45.558;10.070;2023-10-19T00:05:41;99352.59;;;13.65;92.89
63739;BME280;68816;45.558;10.070;2023-10-19T00:08:11;99351.97;;;13.48;94.67
63739;BME280;68816;45.558;10.070;2023-10-19T00:10:40;99350.63;;;13.55;94.27
63739;BME280;68816;45.558;10.070;2023-10-19T00:13:08;99350.38;;;13.62;94.16
63739;BME280;68816;45.558;10.070;2023-10-19T00:15:35;99353.69;;;13.64;93.96
63739;BME280;68816;45.558;10.070;2023-10-19T00:18:06;99350.91;;;13.64;94.69
63739;BME280;68816;45.558;10.070;2023-10-19T00:20:52;99355.09;;;13.62;94.93
63739;BME280;68816;45.558;10.070;2023-10-19T00:23:19;99349.59;;;13.87;93.41
63739;BME280;68816;45.558;10.070;2023-10-19T00:25:55;99354.03;;;13.78;93.92
63739;BME280;68816;45.558;10.070;2023-10-19T00:28:20;99353.44;;;13.76;93.81
63739;BME280;68816;45.558;10.070;2023-10-19T00:30:48;99353.63;;;13.39;96.31
63739;BME280;68816;45.558;10.070;2023-10-19T00:33:17;99357.25;;;13.44;96.60
63739;BME280;68816;45.558;10.070;2023-10-19T00:35:48;99355.09;;;13.67;95.91
63739;BME280;68816;45.558;10.070;2023-10-19T00:38:33;99345.66;;;13.63;95.54
63739;BME280;68816;45.558;10.070;2023-10-19T00:41:02;99339.59;;;13.86;94.02
63739;BME280;68816;45.558;10.070;2023-10-19T00:43:33;99336.84;;;14.01;92.64
63739;BME280;68816;45.558;10.070;2023-10-19T00:46:07;99337.38;;;13.93;92.70
63739;BME280;68816;45.558;10.070;2023-10-19T00:48:36;99332.66;;;13.98;92.71
63739;BME280;68816;45.558;10.070;2023-10-19T00:51:05;99328.41;;;13.55;95.64
63739;BME280;68816;45.558;10.070;2023-10-19T00:53:53;99309.00;;;13.71;94.41
63739;BME280;68816;45.558;10.070;2023-10-19T00:56:19;99307.28;;;13.60;94.90
63739;BME280;68816;45.558;10.070;2023-10-19T00:58:45;99309.47;;;13.47;95.82
63739;BME280;68816;45.558;10.070;2023-10-19T01:01:23;99304.78;;;13.48;97.12
63739;BME280;68816;45.558;10.070;2023-10-19T01:03:54;99300.06;;;13.58;96.21
63739;BME280;68816;45.558;10.070;2023-10-19T01:06:23;99297.03;;;13.70;95.08
63739;BME280;68816;45.558;10.070;2023-10-19T01:08:49;99296.75;;;13.67;95.50
63739;BME280;68816;45.558;10.070;2023-10-19T01:11:17;99293.41;;;13.65;96.03
63739;BME280;68816;45.558;10.070;2023-10-19T01:13:46;99281.78;;;13.73;95.64
63739;BME280;68816;45.558;10.070;2023-10-19T01:16:16;99272.88;;;13.81;94.47
63739;BME280;68816;45.558;10.070;2023-10-19T01:18:51;99273.75;;;13.91;93.92
63739;BME280;68816;45.558;10.070;2023-10-19T01:21:22;99262.63;;;14.02;93.52
63739;BME280;68816;45.558;10.070;2023-10-19T01:23:52;99254.00;;;13.93;93.62
63739;BME280;68816;45.558;10.070;2023-10-19T01:26:19;99245.94;;;14.07;93.76
63739;BME280;68816;45.558;10.070;2023-10-19T01:28:47;99248.44;;;14.18;92.23
63739;BME280;68816;45.558;10.070;2023-10-19T01:31:21;99246.75;;;14.17;92.38
63739;BME280;68816;45.558;10.070;2023-10-19T01:33:53;99247.84;;;14.21;92.33
63739;BME280;68816;45.558;10.070;2023-10-19T01:36:22;99248.44;;;14.18;92.33
63739;BME280;68816;45.558;10.070;2023-10-19T01:38:48;99238.72;;;14.21;92.27
63739;BME280;68816;45.558;10.070;2023-10-19T01:41:14;99238.72;;;13.90;94.41
63739;BME280;68816;45.558;10.070;2023-10-19T01:43:44;99237.59;;;13.71;95.42
63739;BME280;68816;45.558;10.070;2023-10-19T01:46:11;99230.09;;;13.97;94.06
63739;BME280;68816;45.558;10.070;2023-10-19T01:48:39;99222.31;;;13.94;94.67
63739;BME280;68816;45.558;10.070;2023-10-19T01:51:07;99223.69;;;14.02;94.03
63739;BME280;68816;45.558;10.070;2023-10-19T01:53:38;99221.19;;;13.95;93.96
63739;BME280;68816;45.558;10.070;2023-10-19T01:56:11;99215.34;;;14.12;93.16
63739;BME280;68816;45.558;10.070;2023-10-19T01:58:42;99221.47;;;13.88;95.17
63739;BME280;68816;45.558;10.070;2023-10-19T02:01:08;99218.41;;;13.95;95.67
63739;BME280;68816;45.558;10.070;2023-10-19T02:03:37;99208.41;;;14.04;94.43
63739;BME280;68816;45.558;10.070;2023-10-19T02:06:08;99210.63;;;14.12;94.00
63739;BME280;68816;45.558;10.070;2023-10-19T02:08:52;99201.41;;;14.22;93.29
63739;BME280;68816;45.558;10.070;2023-10-19T02:11:24;99195.59;;;14.23;93.11
63739;BME280;68816;45.558;10.070;2023-10-19T02:13:53;99193.94;;;14.37;92.35
63739;BME280;68816;45.558;10.070;2023-10-19T02:16:20;99191.41;;;14.41;91.80
63739;BME280;68816;45.558;10.070;2023-10-19T02:18:48;99200.06;;;14.19;92.70
63739;BME280;68816;45.558;10.070;2023-10-19T02:21:15;99190.06;;;13.98;94.34
63739;BME280;68816;45.558;10.070;2023-10-19T02:23:44;99180.88;;;13.92;95.50
63739;BME280;68816;45.558;10.070;2023-10-19T02:26:10;99185.59;;;14.17;93.82
63739;BME280;68816;45.558;10.070;2023-10-19T02:28:39;99185.59;;;14.17;100.00
63739;BME280;68816;45.558;10.070;2023-10-19T02:31:05;99178.38;;;14.11;94.22
63739;BME280;68816;45.558;10.070;2023-10-19T02:33:42;99168.34;;;14.20;93.85
63739;BME280;68816;45.558;10.070;2023-10-19T02:36:12;99159.13;;;14.35;93.60
63739;BME280;68816;45.558;10.070;2023-10-19T02:38:45;99154.41;;;14.35;93.10
63739;BME280;68816;45.558;10.070;2023-10-19T02:41:19;99159.41;;;14.33;92.89
63739;BME280;68816;45.558;10.070;2023-10-19T02:43:46;99161.72;;;14.01;94.89
63739;BME280;68816;45.558;10.070;2023-10-19T02:46:17;99169.22;;;13.95;95.19
63739;BME280;68816;45.558;10.070;2023-10-19T02:48:46;99163.13;;;13.83;95.66
63739;BME280;68816;45.558;10.070;2023-10-19T02:51:13;99161.44;;;14.03;95.62
63739;BME280;68816;45.558;10.070;2023-10-19T02:53:39;99151.38;;;14.17;94.51
63739;BME280;68816;45.558;10.070;2023-10-19T02:56:15;99149.47;;;14.02;94.77
63739;BME280;68816;45.558;10.070;2023-10-19T02:58:49;99148.94;;;13.95;95.75
63739;BME280;68816;45.558;10.070;2023-10-19T03:01:20;99150.03;;;13.94;95.86
63739;BME280;68816;45.558;10.070;2023-10-19T03:03:55;99140.59;;;13.90;95.69
63739;BME280;68816;45.558;10.070;2023-10-19T03:06:25;99130.59;;;13.89;96.41
63739;BME280;68816;45.558;10.070;2023-10-19T03:08:51;99132.25;;;14.00;95.74
63739;BME280;68816;45.558;10.070;2023-10-19T03:11:24;99132.81;;;13.77;96.69
63739;BME280;68816;45.558;10.070;2023-10-19T03:13:50;99131.69;;;13.93;96.28
63739;BME280;68816;45.558;10.070;2023-10-19T03:16:19;99130.03;;;13.82;97.82
63739;BME280;68816;45.558;10.070;2023-10-19T03:18:46;99120.88;;;13.81;97.06
63739;BME280;68816;45.558;10.070;2023-10-19T03:21:12;99115.88;;;13.78;98.41
63739;BME280;68816;45.558;10.070;2023-10-19T03:23:37;99112.28;;;13.73;97.72
63739;BME280;68816;45.558;10.070;2023-10-19T03:26:04;99113.13;;;13.73;98.98
63739;BME280;68816;45.558;10.070;2023-10-19T03:28:43;99106.16;;;13.76;97.92
63739;BME280;68816;45.558;10.070;2023-10-19T03:31:10;99095.56;;;13.93;97.62
63739;BME280;68816;45.558;10.070;2023-10-19T03:33:46;99109.47;;;13.88;97.42
63739;BME280;68816;45.558;10.070;2023-10-19T03:36:22;99098.63;;;13.81;98.63
63739;BME280;68816;45.558;10.070;2023-10-19T03:38:49;99094.47;;;13.89;97.91
63739;BME280;68816;45.558;10.070;2023-10-19T03:41:17;99097.81;;;13.91;98.07
63739;BME280;68816;45.558;10.070;2023-10-19T03:43:48;99103.97;;;13.68;99.48
63739;BME280;68816;45.558;10.070;2023-10-19T03:46:14;99104.25;;;13.61;100.00
63739;BME280;68816;45.558;10.070;2023-10-19T03:48:59;99095.03;;;13.76;99.39
63739;BME280;68816;45.558;10.070;2023-10-19T03:51:29;99088.38;;;13.77;99.23
63739;BME280;68816;45.558;10.070;2023-10-19T03:54:05;99079.75;;;13.78;98.86
63739;BME280;68816;45.558;10.070;2023-10-19T03:56:46;99082.25;;;13.85;97.76
63739;BME280;68816;45.558;10.070;2023-10-19T03:59:13;99072.78;;;13.81;98.22
63739;BME280;68816;45.558;10.070;2023-10-19T04:01:41;99081.16;;;13.71;99.36
63739;BME280;68816;45.558;10.070;2023-10-19T04:04:12;99074.47;;;13.82;99.19
63739;BME280;68816;45.558;10.070;2023-10-19T04:06:39;99064.78;;;13.74;99.47
63739;BME280;68816;45.558;10.070;2023-10-19T04:09:05;99061.38;;;13.87;99.24
63739;BME280;68816;45.558;10.070;2023-10-19T04:11:32;99072.00;;;13.65;100.00
63739;BME280;68816;45.558;10.070;2023-10-19T04:13:59;99059.75;;;13.81;99.02
63739;BME280;68816;45.558;10.070;2023-10-19T04:16:29;99046.06;;;14.00;97.28
63739;BME280;68816;45.558;10.070;2023-10-19T04:18:56;99038.25;;;14.12;96.76
63739;BME280;68816;45.558;10.070;2023-10-19T04:21:23;99040.72;;;14.19;96.48
63739;BME280;68816;45.558;10.070;2023-10-19T04:23:49;99015.41;;;14.25;95.17
63739;BME280;68816;45.558;10.070;2023-10-19T04:26:15;99011.75;;;14.30;95.27
63739;BME280;68816;45.558;10.070;2023-10-19T04:28:44;99004.25;;;14.30;95.36
63739;BME280;68816;45.558;10.070;2023-10-19T04:31:11;99015.09;;;14.37;95.28
63739;BME280;68816;45.558;10.070;2023-10-19T04:33:39;99014.78;;;14.38;94.55
63739;BME280;68816;45.558;10.070;2023-10-19T04:36:08;99004.22;;;14.35;95.46
63739;BME280;68816;45.558;10.070;2023-10-19T04:38:37;99004.59;;;14.19;95.73
63739;BME280;68816;45.558;10.070;2023-10-19T04:41:10;98997.34;;;14.18;95.60
63739;BME280;68816;45.558;10.070;2023-10-19T04:43:37;99003.69;;;14.28;95.19
63739;BME280;68816;45.558;10.070;2023-10-19T04:46:10;99003.22;;;14.11;96.45
63739;BME280;68816;45.558;10.070;2023-10-19T04:48:40;99006.94;;;13.91;97.89
63739;BME280;68816;45.558;10.070;2023-10-19T04:51:09;99004.91;;;14.07;97.84
63739;BME280;68816;45.558;10.070;2023-10-19T04:53:36;99007.09;;;14.20;96.66
63739;BME280;68816;45.558;10.070;2023-10-19T04:56:03;99004.94;;;13.92;99.47
63739;BME280;68816;45.558;10.070;2023-10-19T04:58:29;99001.03;;;14.03;98.62
63739;BME280;68816;45.558;10.070;2023-10-19T05:00:55;99000.69;;;14.20;97.41
63739;BME280;68816;45.558;10.070;2023-10-19T05:03:24;99007.94;;;14.11;97.08
63739;BME280;68816;45.558;10.070;2023-10-19T05:05:49;99014.38;;;14.01;99.02
63739;BME280;68816;45.558;10.070;2023-10-19T05:08:15;99026.06;;;13.93;99.06
63739;BME280;68816;45.558;10.070;2023-10-19T05:10:40;99024.16;;;13.88;100.00
63739;BME280;68816;45.558;10.070;2023-10-19T05:13:07;99023.91;;;13.80;99.51
63739;BME280;68816;45.558;10.070;2023-10-19T05:15:33;99020.03;;;13.76;100.00
63739;BME280;68816;45.558;10.070;2023-10-19T05:18:01;99008.38;;;13.74;100.00
63739;BME280;68816;45.558;10.070;2023-10-19T05:20:27;99010.59;;;13.72;100.00
63739;BME280;68816;45.558;10.070;2023-10-19T05:22:53;98998.88;;;13.90;100.00
63739;BME280;68816;45.558;10.070;2023-10-19T05:25:18;98991.63;;;13.94;100.00
63739;BME280;68816;45.558;10.070;2023-10-19T05:27:44;98992.69;;;14.08;99.82
63739;BME280;68816;45.558;10.070;2023-10-19T05:30:11;99001.28;;;14.07;99.25
63739;BME280;68816;45.558;10.070;2023-10-19T05:32:37;99001.53;;;14.20;97.85
63739;BME280;68816;45.558;10.070;2023-10-19T05:35:04;99002.56;;;14.29;96.99
63739;BME280;68816;45.558;10.070;2023-10-19T05:37:31;99008.69;;;14.31;96.54
63739;BME280;68816;45.558;10.070;2023-10-19T05:39:57;99004.56;;;14.24;97.93
63739;BME280;68816;45.558;10.070;2023-10-19T05:42:24;99003.72;;;14.23;97.83
63739;BME280;68816;45.558;10.070;2023-10-19T05:44:50;99000.88;;;14.38;96.79
63739;BME280;68816;45.558;10.070;2023-10-19T05:47:17;99003.31;;;14.50;96.51
63739;BME280;68816;45.558;10.070;2023-10-19T05:49:42;98999.69;;;14.55;96.02
63739;BME280;68816;45.558;10.070;2023-10-19T05:52:08;99005.22;;;14.60;96.03
63739;BME280;68816;45.558;10.070;2023-10-19T05:54:35;99002.19;;;14.51;96.50
63739;BME280;68816;45.558;10.070;2023-10-19T05:57:03;99004.66;;;14.58;95.94
63739;BME280;68816;45.558;10.070;2023-10-19T05:59:33;99004.13;;;14.56;95.83
63739;BME280;68816;45.558;10.070;2023-10-19T06:01:58;99006.56;;;14.13;98.59
63739;BME280;68816;45.558;10.070;2023-10-19T06:04:24;99002.31;;;14.31;97.49
63739;BME280;68816;45.558;10.070;2023-10-19T06:06:50;99000.06;;;14.28;97.70
63739;BME280;68816;45.558;10.070;2023-10-19T06:09:17;99007.13;;;14.05;99.41
63739;BME280;68816;45.558;10.070;2023-10-19T06:11:44;98994.13;;;13.95;99.77
63739;BME280;68816;45.558;10.070;2023-10-19T06:14:10;98998.78;;;14.05;99.44
63739;BME280;68816;45.558;10.070;2023-10-19T06:16:38;98995.72;;;14.07;98.87
63739;BME280;68816;45.558;10.070;2023-10-19T06:19:04;98985.66;;;14.26;98.07
63739;BME280;68816;45.558;10.070;2023-10-19T06:21:31;98982.91;;;14.11;98.48
63739;BME280;68816;45.558;10.070;2023-10-19T06:23:58;98975.28;;;14.36;96.62
63739;BME280;68816;45.558;10.070;2023-10-19T06:26:23;98979.69;;;14.48;95.75
63739;BME280;68816;45.558;10.070;2023-10-19T06:28:49;98974.94;;;14.53;95.45
63739;BME280;68816;45.558;10.070;2023-10-19T06:31:16;98985.78;;;14.55;95.51
63739;BME280;68816;45.558;10.070;2023-10-19T06:33:42;98991.25;;;14.21;97.89
63739;BME280;68816;45.558;10.070;2023-10-19T06:36:08;98992.09;;;14.11;99.29
63739;BME280;68816;45.558;10.070;2023-10-19T06:38:34;98992.03;;;14.21;98.13
63739;BME280;68816;45.558;10.070;2023-10-19T06:41:00;98989.91;;;14.08;98.83
63739;BME280;68816;45.558;10.070;2023-10-19T06:43:28;98986.06;;;13.94;100.00
63739;BME280;68816;45.558;10.070;2023-10-19T06:45:56;98980.19;;;14.01;99.71
63739;BME280;68816;45.558;10.070;2023-10-19T06:48:21;98980.91;;;14.26;97.72
63739;BME280;68816;45.558;10.070;2023-10-19T06:50:47;98977.22;;;14.36;96.26
63739;BME280;68816;45.558;10.070;2023-10-19T06:53:12;98984.22;;;14.28;97.12
63739;BME280;68816;45.558;10.070;2023-10-19T06:55:39;98995.91;;;14.30;97.22
63739;BME280;68816;45.558;10.070;2023-10-19T06:58:05;99007.03;;;14.30;97.83
63739;BME280;68816;45.558;10.070;2023-10-19T07:00:32;98993.03;;;13.86;100.00
63739;BME280;68816;45.558;10.070;2023-10-19T07:02:59;98995.47;;;14.03;99.51
63739;BME280;68816;45.558;10.070;2023-10-19T07:05:28;98992.38;;;14.10;98.64
63739;BME280;68816;45.558;10.070;2023-10-19T07:07:57;98986.22;;;14.18;98.07
63739;BME280;68816;45.558;10.070;2023-10-19T07:10:25;98985.97;;;14.14;98.39
63739;BME280;68816;45.558;10.070;2023-10-19T07:12:54;98994.66;;;14.03;99.85
63739;BME280;68816;45.558;10.070;2023-10-19T07:15:20;98990.13;;;14.17;99.30
63739;BME280;68816;45.558;10.070;2023-10-19T07:17:50;98995.13;;;14.20;98.95
63739;BME280;68816;45.558;10.070;2023-10-19T07:20:23;98986.69;;;14.40;97.45
63739;BME280;68816;45.558;10.070;2023-10-19T07:22:58;98966.59;;;14.53;96.94
63739;BME280;68816;45.558;10.070;2023-10-19T07:25:47;98953.97;;;14.66;96.87
63739;BME280;68816;45.558;10.070;2023-10-19T07:28:17;98951.66;;;14.78;96.76
63739;BME280;68816;45.558;10.070;2023-10-19T07:30:43;98952.06;;;14.95;96.11
63739;BME280;68816;45.558;10.070;2023-10-19T07:33:12;98956.44;;;15.06;95.07
63739;BME280;68816;45.558;10.070;2023-10-19T07:35:46;98960.28;;;15.10;94.53
63739;BME280;68816;45.558;10.070;2023-10-19T07:38:16;98960.88;;;15.07;94.93
63739;BME280;68816;45.558;10.070;2023-10-19T07:40:42;98955.94;;;14.99;94.85
63739;BME280;68816;45.558;10.070;2023-10-19T07:43:11;98957.53;;;15.05;94.74
63739;BME280;68816;45.558;10.070;2023-10-19T07:45:36;98954.81;;;15.00;94.47
63739;BME280;68816;45.558;10.070;2023-10-19T07:48:02;98936.34;;;15.09;93.67
63739;BME280;68816;45.558;10.070;2023-10-19T07:50:38;98941.56;;;15.16;95.15
63739;BME280;68816;45.558;10.070;2023-10-19T07:53:08;98941.56;;;15.16;94.79
63739;BME280;68816;45.558;10.070;2023-10-19T07:55:34;98946.19;;;15.02;93.83
63739;BME280;68816;45.558;10.070;2023-10-19T07:58:01;98950.97;;;14.91;93.84
63739;BME280;68816;45.558;10.070;2023-10-19T08:00:28;98952.56;;;15.02;92.73
63739;BME280;68816;45.558;10.070;2023-10-19T08:02:59;98950.31;;;15.04;92.79
63739;BME280;68816;45.558;10.070;2023-10-19T08:05:24;98942.84;;;15.00;93.48
63739;BME280;68816;45.558;10.070;2023-10-19T08:07:50;98937.06;;;14.91;94.48
63739;BME280;68816;45.558;10.070;2023-10-19T08:10:17;98927.03;;;14.95;94.02
63739;BME280;68816;45.558;10.070;2023-10-19T08:12:44;98923.31;;;15.05;93.29
63739;BME280;68816;45.558;10.070;2023-10-19T08:15:13;98919.97;;;15.03;93.73
63739;BME280;68816;45.558;10.070;2023-10-19T08:17:46;98916.78;;;15.14;92.57
63739;BME280;68816;45.558;10.070;2023-10-19T08:20:13;98916.63;;;15.06;93.24
63739;BME280;68816;45.558;10.070;2023-10-19T08:22:43;98920.91;;;14.93;94.32
63739;BME280;68816;45.558;10.070;2023-10-19T08:25:12;98915.03;;;14.66;97.19
63739;BME280;68816;45.558;10.070;2023-10-19T08:27:40;98915.94;;;14.90;95.86
63739;BME280;68816;45.558;10.070;2023-10-19T08:30:12;98919.34;;;14.48;97.88
63739;BME280;68816;45.558;10.070;2023-10-19T08:32:41;98916.03;;;14.41;99.62
63739;BME280;68816;45.558;10.070;2023-10-19T08:35:08;98909.88;;;14.49;100.00
63739;BME280;68816;45.558;10.070;2023-10-19T08:37:38;98912.16;;;14.42;100.00
63739;BME280;68816;45.558;10.070;2023-10-19T08:40:06;98917.59;;;14.57;100.00
63739;BME280;68816;45.558;10.070;2023-10-19T08:42:32;98914.97;;;14.32;100.00
63739;BME280;68816;45.558;10.070;2023-10-19T08:44:59;98903.63;;;14.62;100.00
63739;BME280;68816;45.558;10.070;2023-10-19T08:47:25;98902.28;;;14.60;100.00
63739;BME280;68816;45.558;10.070;2023-10-19T08:49:53;98896.81;;;14.50;100.00
63739;BME280;68816;45.558;10.070;2023-10-19T08:52:21;98890.88;;;14.61;100.00
63739;BME280;68816;45.558;10.070;2023-10-19T08:54:48;98892.00;;;14.89;100.00
63739;BME280;68816;45.558;10.070;2023-10-19T08:57:14;98898.91;;;14.63;100.00
63739;BME280;68816;45.558;10.070;2023-10-19T08:59:39;98899.63;;;14.73;100.00
63739;BME280;68816;45.558;10.070;2023-10-19T09:02:05;98897.22;;;14.67;100.00
63739;BME280;68816;45.558;10.070;2023-10-19T09:04:32;98893.66;;;14.61;100.00
63739;BME280;68816;45.558;10.070;2023-10-19T09:07:06;98887.44;;;14.69;100.00
63739;BME280;68816;45.558;10.070;2023-10-19T09:09:35;98893.38;;;14.58;100.00
63739;BME280;68816;45.558;10.070;2023-10-19T09:12:06;98877.69;;;14.72;100.00
63739;BME280;68816;45.558;10.070;2023-10-19T09:14:36;98872.66;;;14.74;100.00
63739;BME280;68816;45.558;10.070;2023-10-19T09:17:05;98867.00;;;14.84;99.59
63739;BME280;68816;45.558;10.070;2023-10-19T09:19:38;98856.00;;;14.98;98.57
63739;BME280;68816;45.558;10.070;2023-10-19T09:22:04;98847.38;;;15.23;98.26
63739;BME280;68816;45.558;10.070;2023-10-19T09:24:37;98852.09;;;15.23;95.68
63739;BME280;68816;45.558;10.070;2023-10-19T09:27:05;98842.56;;;15.29;95.96
63739;BME280;68816;45.558;10.070;2023-10-19T09:29:33;98832.19;;;15.34;96.88
63739;BME280;68816;45.558;10.070;2023-10-19T09:31:59;98833.03;;;15.35;95.55
63739;BME280;68816;45.558;10.070;2023-10-19T09:34:30;98835.88;;;15.30;97.94
63739;BME280;68816;45.558;10.070;2023-10-19T09:37:03;98836.81;;;15.44;96.99
63739;BME280;68816;45.558;10.070;2023-10-19T09:39:32;98844.75;;;15.32;96.99
63739;BME280;68816;45.558;10.070;2023-10-19T09:42:08;98854.97;;;15.17;98.25
63739;BME280;68816;45.558;10.070;2023-10-19T09:44:54;98856.25;;;15.01;98.44
63739;BME280;68816;45.558;10.070;2023-10-19T09:47:29;98855.38;;;14.77;99.69
63739;BME280;68816;45.558;10.070;2023-10-19T09:50:00;98855.47;;;14.67;100.00
63739;BME280;68816;45.558;10.070;2023-10-19T09:52:27;98853.53;;;14.67;100.00
63739;BME280;68816;45.558;10.070;2023-10-19T09:55:00;98842.47;;;14.57;100.00
63739;BME280;68816;45.558;10.070;2023-10-19T09:57:44;98836.47;;;14.74;100.00
63739;BME280;68816;45.558;10.070;2023-10-19T10:00:12;98834.28;;;14.71;100.00
63739;BME280;68816;45.558;10.070;2023-10-19T10:02:47;98838.03;;;14.85;100.00
63739;BME280;68816;45.558;10.070;2023-10-19T10:10:52;98830.00;;;15.07;98.47
63739;BME280;68816;45.558;10.070;2023-10-19T10:13:38;98813.59;;;15.30;97.30
63739;BME280;68816;45.558;10.070;2023-10-19T10:16:04;98810.25;;;15.51;96.42
63739;BME280;68816;45.558;10.070;2023-10-19T10:18:30;98809.19;;;15.47;95.56
63739;BME280;68816;45.558;10.070;2023-10-19T10:21:20;98807.88;;;15.64;94.53
63739;BME280;68816;45.558;10.070;2023-10-19T10:23:47;98800.81;;;15.71;94.19
63739;BME280;68816;45.558;10.070;2023-10-19T10:26:17;98799.47;;;15.69;93.54
63739;BME280;68816;45.558;10.070;2023-10-19T10:28:48;98803.81;;;15.32;95.00
63739;BME280;68816;45.558;10.070;2023-10-19T10:33:45;98804.84;;;15.17;97.12
63739;BME280;68816;45.558;10.070;2023-10-19T10:36:13;98817.03;;;15.21;97.23
63739;BME280;68816;45.558;10.070;2023-10-19T10:38:39;98817.41;;;14.86;100.00
63739;BME280;68816;45.558;10.070;2023-10-19T10:41:05;98820.81;;;14.83;100.00
63739;BME280;68816;45.558;10.070;2023-10-19T10:43:51;98810.59;;;14.73;100.00
63739;BME280;68816;45.558;10.070;2023-10-19T10:46:21;98818.31;;;14.53;100.00
63739;BME280;68816;45.558;10.070;2023-10-19T10:48:47;98814.13;;;14.55;100.00
63739;BME280;68816;45.558;10.070;2023-10-19T10:51:22;98822.09;;;14.67;100.00
63739;BME280;68816;45.558;10.070;2023-10-19T10:53:52;98823.78;;;14.63;100.00
63739;BME280;68816;45.558;10.070;2023-10-19T10:56:19;98822.56;;;14.74;100.00
63739;BME280;68816;45.558;10.070;2023-10-19T10:58:45;98803.50;;;14.86;100.00
63739;BME280;68816;45.558;10.070;2023-10-19T11:01:11;98795.09;;;15.15;100.00
63739;BME280;68816;45.558;10.070;2023-10-19T11:03:41;98804.81;;;14.94;100.00
63739;BME280;68816;45.558;10.070;2023-10-19T11:06:11;98792.19;;;14.77;100.00
63739;BME280;68816;45.558;10.070;2023-10-19T11:08:37;98775.25;;;14.74;100.00
63739;BME280;68816;45.558;10.070;2023-10-19T11:11:08;98762.28;;;14.88;100.00
63739;BME280;68816;45.558;10.070;2023-10-19T11:13:37;98759.09;;;15.00;100.00
63739;BME280;68816;45.558;10.070;2023-10-19T11:16:05;98745.84;;;15.34;98.55
63739;BME280;68816;45.558;10.070;2023-10-19T11:18:32;98724.28;;;15.64;96.73
63739;BME280;68816;45.558;10.070;2023-10-19T11:21:00;98731.38;;;15.75;95.96
63739;BME280;68816;45.558;10.070;2023-10-19T11:23:42;98749.25;;;15.50;95.17
63739;BME280;68816;45.558;10.070;2023-10-19T11:26:10;98751.94;;;15.60;94.76
63739;BME280;68816;45.558;10.070;2023-10-19T11:28:36;98768.75;;;15.55;94.69
63739;BME280;68816;45.558;10.070;2023-10-19T11:31:16;98775.06;;;15.37;97.28
63739;BME280;68816;45.558;10.070;2023-10-19T11:33:44;98782.75;;;15.02;99.60
63739;BME280;68816;45.558;10.070;2023-10-19T11:36:13;98788.75;;;14.86;100.00
63739;BME280;68816;45.558;10.070;2023-10-19T11:38:46;98795.63;;;14.93;100.00
63739;BME280;68816;45.558;10.070;2023-10-19T11:41:14;98784.03;;;15.10;100.00
63739;BME280;68816;45.558;10.070;2023-10-19T11:43:41;98792.38;;;15.10;100.00
63739;BME280;68816;45.558;10.070;2023-10-19T11:46:09;98793.09;;;14.73;100.00
63739;BME280;68816;45.558;10.070;2023-10-19T11:48:36;98788.81;;;14.80;100.00
63739;BME280;68816;45.558;10.070;2023-10-19T11:51:03;98789.66;;;14.81;100.00
63739;BME280;68816;45.558;10.070;2023-10-19T11:53:46;98784.28;;;14.90;100.00
63739;BME280;68816;45.558;10.070;2023-10-19T11:56:13;98772.88;;;14.86;100.00
63739;BME280;68816;45.558;10.070;2023-10-19T11:58:39;98774.34;;;15.07;100.00
63739;BME280;68816;45.558;10.070;2023-10-19T12:01:08;98774.19;;;15.17;99.60
63739;BME280;68816;45.558;10.070;2023-10-19T12:03:41;98789.78;;;14.95;100.00
63739;BME280;68816;45.558;10.070;2023-10-19T12:06:10;98784.13;;;14.76;100.00
63739;BME280;68816;45.558;10.070;2023-10-19T12:08:38;98783.25;;;14.80;100.00
63739;BME280;68816;45.558;10.070;2023-10-19T12:11:05;98775.59;;;14.91;100.00
63739;BME280;68816;45.558;10.070;2023-10-19T12:13:41;98749.09;;;14.99;100.00
63739;BME280;68816;45.558;10.070;2023-10-19T12:16:09;98730.88;;;15.30;100.00
63739;BME280;68816;45.558;10.070;2023-10-19T12:18:44;98714.47;;;15.47;100.00
63739;BME280;68816;45.558;10.070;2023-10-19T12:21:10;98721.22;;;15.65;100.00
63739;BME280;68816;45.558;10.070;2023-10-19T12:23:42;98727.38;;;15.81;96.41
63739;BME280;68816;45.558;10.070;2023-10-19T12:26:16;98725.78;;;15.75;96.90
63739;BME280;68816;45.558;10.070;2023-10-19T12:28:43;98726.16;;;15.68;96.77
63739;BME280;68816;45.558;10.070;2023-10-19T12:31:12;98728.88;;;15.73;95.55
63739;BME280;68816;45.558;10.070;2023-10-19T12:33:38;98710.34;;;15.82;96.46
63739;BME280;68816;45.558;10.070;2023-10-19T12:36:04;98714.25;;;15.81;95.61
63739;BME280;68816;45.558;10.070;2023-10-19T12:38:49;98715.91;;;15.82;95.69
63739;BME280;68816;45.558;10.070;2023-10-19T12:41:15;98725.63;;;15.85;94.55
63739;BME280;68816;45.558;10.070;2023-10-19T12:43:43;98740.34;;;15.72;94.70
63739;BME280;68816;45.558;10.070;2023-10-19T12:46:09;98743.13;;;15.72;95.61
63739;BME280;68816;45.558;10.070;2023-10-19T12:48:35;98745.16;;;15.66;95.31
63739;BME280;68816;45.558;10.070;2023-10-19T12:51:06;98736.47;;;15.68;96.47
63739;BME280;68816;45.558;10.070;2023-10-19T12:53:33;98730.03;;;15.72;95.17
63739;BME280;68816;45.558;10.070;2023-10-19T12:55:59;98736.25;;;15.83;94.83
63739;BME280;68816;45.558;10.070;2023-10-19T12:58:25;98729.03;;;15.82;95.22
63739;BME280;68816;45.558;10.070;2023-10-19T13:00:53;98732.34;;;15.84;95.04
63739;BME280;68816;45.558;10.070;2023-10-19T13:03:20;98732.72;;;15.77;95.05
63739;BME280;68816;45.558;10.070;2023-10-19T13:05:47;98722.53;;;15.68;95.69